Terminal Aerodrome Forecast
Issued by NWS

Home | Current Version | Previous Version | Text Only | Print | Product List | Glossary On
Versions: 1 2 3 4 5 6 7 8 9 10 11 12 13 14
727
FTUS41 KPBZ 261727
TAFDUJ
TAF
KDUJ 261727Z 2618/2718 21012KT P6SM VCTS BKN035CB
     FM262300 22005KT P6SM BKN080
     FM270800 23003KT 6SM BR BKN015
     FM271000 23004KT 3SM BR BKN008
     FM271300 21008KT P6SM BKN025=

USA.gov is the U.S. government's official web portal to all federal, state and local government web resources and services.